Time;durP1;ratioP1;P1;durP2;ratioP2;P2;SDS_P1;SDS_P2;PMS_P1;PMS_P2;Temp;Humidity;BMP_temperature;BMP_pressure;BME280_temperature;BME280_humidity;BME280_pressure;Samples;Min_cycle;Max_cycle;Signal;HPM_P1;HPM_P2
2023/01/05 00:02:22;;;;;;;11.00;2.97;;;;;;;19.39;47.11;101590.19;4982635;28;20273;-68
2023/01/05 00:04:47;;;;;;;7.85;2.95;;;;;;;19.37;47.19;101592.97;4985143;28;20034;-69
2023/01/05 00:07:12;;;;;;;9.75;2.65;;;;;;;19.36;47.24;101586.00;4995468;28;20041;-68
2023/01/05 00:09:38;;;;;;;8.77;2.55;;;;;;;19.35;47.22;101586.13;4985572;28;20070;-68
2023/01/05 00:23:02;;;;;;;9.77;2.83;;;;;;;19.34;46.88;101595.84;4982485;28;20553;-69
2023/01/05 00:25:30;;;;;;;9.25;3.17;;;;;;;19.29;46.97;101594.50;4994390;28;20037;-67
2023/01/05 00:27:57;;;;;;;8.43;2.75;;;;;;;19.32;47.06;101604.84;5000964;28;20037;-67
2023/01/05 00:30:29;;;;;;;10.80;3.08;;;;;;;19.27;46.90;101609.63;4992067;28;20062;-68
2023/01/05 00:32:54;;;;;;;10.70;2.92;;;;;;;19.30;46.74;101612.06;4998430;28;20030;-67
2023/01/05 00:35:20;;;;;;;9.55;2.80;;;;;;;19.25;47.01;101609.75;5001643;28;20041;-68
2023/01/05 00:37:46;;;;;;;11.10;3.30;;;;;;;19.25;46.88;101598.31;5002222;28;20120;-68
2023/01/05 00:40:14;;;;;;;10.02;2.80;;;;;;;19.27;46.83;101607.81;4998389;28;20173;-69
2023/01/05 00:42:39;;;;;;;10.13;2.90;;;;;;;19.27;46.95;101604.34;4992148;28;20026;-70
2023/01/05 00:45:07;;;;;;;9.43;2.60;;;;;;;19.23;46.87;101592.31;5001785;28;20021;-69
2023/01/05 00:47:32;;;;;;;9.20;2.85;;;;;;;19.26;46.78;101606.13;5001795;28;20052;-69
2023/01/05 00:49:57;;;;;;;12.23;3.13;;;;;;;19.25;46.73;101609.75;5001650;28;20038;-67
2023/01/05 00:52:23;;;;;;;10.13;2.67;;;;;;;19.25;47.14;101614.16;4983675;28;20483;-68
2023/01/05 00:54:48;;;;;;;8.45;2.65;;;;;;;19.21;46.50;101606.47;4995735;28;20263;-66
2023/01/05 00:57:14;;;;;;;11.25;3.17;;;;;;;19.24;46.70;101612.50;4998263;28;20037;-67
2023/01/05 00:59:39;;;;;;;10.07;3.00;;;;;;;19.23;46.63;101605.53;4991302;28;20489;-68
2023/01/05 01:02:05;;;;;;;11.57;3.22;;;;;;;19.19;46.77;101604.91;4985031;28;20034;-70
2023/01/05 01:04:31;;;;;;;11.40;3.35;;;;;;;19.19;46.64;101607.56;5000833;28;20061;-68
2023/01/05 01:06:57;;;;;;;8.27;2.60;;;;;;;19.20;46.53;101614.50;4996535;28;20031;-67
2023/01/05 01:09:22;;;;;;;9.80;2.67;;;;;;;19.17;46.76;101615.59;4981645;28;20080;-67
2023/01/05 01:11:47;;;;;;;12.02;3.17;;;;;;;19.18;46.73;101613.78;4982002;28;21260;-68
2023/01/05 01:14:13;;;;;;;10.35;2.85;;;;;;;19.17;46.51;101620.03;4981776;28;20497;-67
2023/01/05 01:16:40;;;;;;;11.45;3.38;;;;;;;19.15;46.50;101616.66;4996962;28;20043;-70
2023/01/05 01:19:06;;;;;;;9.43;3.13;;;;;;;19.13;46.46;101619.41;4982016;28;20030;-69
2023/01/05 01:21:31;;;;;;;10.20;2.67;;;;;;;19.16;46.51;101613.06;4981710;28;20099;-67
2023/01/05 01:23:57;;;;;;;11.30;2.85;;;;;;;19.16;46.64;101632.41;4982276;28;20037;-67
2023/01/05 01:26:22;;;;;;;9.53;2.67;;;;;;;19.13;46.47;101627.34;4981792;28;20077;-67
2023/01/05 01:28:48;;;;;;;11.48;2.90;;;;;;;19.13;46.22;101637.91;4982071;28;20280;-68
2023/01/05 01:31:13;;;;;;;9.35;2.40;;;;;;;19.11;46.51;101637.19;4996170;28;20038;-68
2023/01/05 01:33:39;;;;;;;10.75;3.05;;;;;;;19.13;46.18;101637.06;4989769;28;20431;-67
2023/01/05 01:36:06;;;;;;;10.50;2.90;;;;;;;19.09;46.40;101639.09;4981191;28;20105;-69
2023/01/05 01:38:32;;;;;;;10.60;3.05;;;;;;;19.11;46.52;101647.75;4999198;28;20030;-69
2023/01/05 01:40:57;;;;;;;10.07;2.50;;;;;;;19.11;46.46;101654.84;5000374;28;20099;-67
2023/01/05 01:43:47;;;;;;;9.13;2.60;;;;;;;19.10;46.45;101640.75;4992648;28;20118;-67
2023/01/05 01:46:14;;;;;;;9.57;2.72;;;;;;;19.09;46.34;101647.03;4990265;28;20486;-68
2023/01/05 01:48:46;;;;;;;9.82;2.78;;;;;;;19.08;46.36;101650.59;4999918;28;20115;-68
2023/01/05 01:51:16;;;;;;;8.98;2.58;;;;;;;19.08;46.41;101649.78;5001156;28;20562;-69
2023/01/05 01:53:48;;;;;;;10.85;2.50;;;;;;;19.07;46.46;101656.00;4988420;28;20065;-69
2023/01/05 01:56:17;;;;;;;10.57;2.55;;;;;;;19.02;46.28;101656.34;4981537;28;20073;-67
2023/01/05 01:58:43;;;;;;;11.05;3.10;;;;;;;19.04;46.22;101649.13;4994660;28;20038;-69
2023/01/05 02:01:09;;;;;;;9.95;2.72;;;;;;;19.06;46.22;101659.59;5001155;28;20092;-68
2023/01/05 02:03:36;;;;;;;10.43;2.83;;;;;;;19.03;46.37;101658.88;4986406;28;20038;-67
2023/01/05 02:06:02;;;;;;;9.07;2.60;;;;;;;19.05;46.34;101661.41;4997053;28;20092;-68
2023/01/05 02:08:30;;;;;;;10.68;2.58;;;;;;;18.99;46.14;101653.91;4981370;28;20042;-68
2023/01/05 02:11:14;;;;;;;10.15;3.17;;;;;;;19.01;46.49;101660.78;4979929;28;20419;-68
2023/01/05 02:13:43;;;;;;;12.18;2.83;;;;;;;19.02;46.35;101665.09;4981048;28;20030;-68
2023/01/05 02:16:31;;;;;;;10.30;3.40;;;;;;;19.01;46.35;101665.22;4981574;28;20030;-68
2023/01/05 02:19:46;;;;;;;10.63;2.70;;;;;;;19.02;46.09;101664.25;4988911;28;20053;-68
2023/01/05 02:22:59;;;;;;;9.70;3.10;;;;;;;19.03;46.16;101668.59;4984447;28;20034;-67
2023/01/05 02:25:43;;;;;;;10.25;3.00;;;;;;;19.01;46.12;101667.88;5003940;28;20037;-69
2023/01/05 02:28:27;;;;;;;10.80;2.80;;;;;;;19.01;46.25;101665.22;4994802;28;20093;-70
2023/01/05 02:31:13;;;;;;;9.88;2.92;;;;;;;18.97;46.39;101666.41;4993630;28;20052;-67
2023/01/05 02:33:54;;;;;;;11.02;2.78;;;;;;;18.97;46.34;101667.22;4991696;28;20038;-69
2023/01/05 02:36:28;;;;;;;9.73;2.55;;;;;;;18.92;45.92;101664.09;4994750;28;20057;-68
2023/01/05 02:39:05;;;;;;;12.48;3.53;;;;;;;18.96;46.45;101669.97;4994696;28;20053;-68
2023/01/05 02:41:36;;;;;;;8.88;2.83;;;;;;;18.90;46.37;101673.91;4990265;28;20037;-67
2023/01/05 02:44:02;;;;;;;9.25;2.85;;;;;;;18.92;46.48;101666.72;4988721;28;20137;-67
2023/01/05 02:46:28;;;;;;;10.57;2.85;;;;;;;18.94;46.23;101678.00;4991271;28;20133;-67
2023/01/05 02:48:57;;;;;;;9.52;2.60;;;;;;;18.91;46.54;101674.75;4992494;28;20121;-67
2023/01/05 02:51:28;;;;;;;11.10;3.22;;;;;;;18.91;46.42;101675.59;4992165;28;20076;-69
2023/01/05 02:54:02;;;;;;;11.00;2.50;;;;;;;18.90;46.33;101673.06;4991927;28;20091;-67
2023/01/05 02:56:40;;;;;;;10.40;2.70;;;;;;;18.92;46.25;101682.56;4995999;28;20069;-68
2023/01/05 02:59:17;;;;;;;8.90;2.90;;;;;;;18.92;46.24;101677.28;4996113;28;20181;-66
2023/01/05 03:01:48;;;;;;;12.98;3.08;;;;;;;18.91;46.16;101680.88;4994411;28;20034;-68
2023/01/05 03:04:49;;;;;;;11.73;3.45;;;;;;;18.93;46.22;101686.03;4990305;28;20042;-69
2023/01/05 03:07:17;;;;;;;8.60;2.75;;;;;;;18.89;46.29;101674.88;4984910;28;21047;-68
2023/01/05 03:09:44;;;;;;;9.38;2.33;;;;;;;18.88;46.13;101678.44;4992427;28;20025;-70
2023/01/05 03:15:19;;;;;;;10.73;3.13;;;;;;;18.88;46.36;101682.91;4988375;28;20053;-65
2023/01/05 03:17:48;;;;;;;11.13;2.80;;;;;;;18.85;46.22;101673.41;4995982;28;20911;-68
2023/01/05 03:20:18;;;;;;;10.30;2.78;;;;;;;18.86;46.20;101677.72;4997426;28;20049;-67
2023/01/05 03:37:36;;;;;;;10.02;2.60;;;;;;;18.81;46.30;101693.84;4997614;28;20517;-67
2023/01/05 03:40:05;;;;;;;12.20;3.85;;;;;;;18.80;46.14;101694.84;5004814;28;20053;-66
2023/01/05 03:42:31;;;;;;;11.50;2.85;;;;;;;18.83;46.21;101684.06;5000721;28;20037;-65
2023/01/05 03:44:57;;;;;;;9.80;2.95;;;;;;;18.83;46.28;101684.06;4999692;28;20026;-67
2023/01/05 03:47:23;;;;;;;7.78;2.20;;;;;;;18.82;46.20;101689.44;4995963;28;20414;-69
2023/01/05 03:49:50;;;;;;;9.15;2.50;;;;;;;18.81;46.18;101693.84;4989556;28;20108;-66
2023/01/05 03:52:15;;;;;;;10.85;2.65;;;;;;;18.81;46.15;101693.03;4984194;28;20644;-66
2023/01/05 03:54:41;;;;;;;8.90;2.40;;;;;;;18.81;46.23;101696.50;4991176;28;20112;-70
2023/01/05 03:57:06;;;;;;;9.68;2.53;;;;;;;18.78;46.24;101693.25;5000311;28;20037;-66
2023/01/05 03:59:31;;;;;;;10.15;2.72;;;;;;;18.80;46.16;101708.03;4992585;28;20045;-66
2023/01/05 04:01:56;;;;;;;8.23;2.47;;;;;;;18.80;46.08;101701.88;4998299;28;20494;-68
2023/01/05 04:04:22;;;;;;;10.35;2.78;;;;;;;18.80;46.08;101704.53;4999138;28;20263;-67
2023/01/05 04:06:47;;;;;;;12.52;2.63;;;;;;;18.69;46.11;101684.16;4987950;28;20110;-69
2023/01/05 04:09:12;;;;;;;8.63;2.70;;;;;;;18.76;46.30;101701.28;4983330;28;20435;-67
2023/01/05 04:11:38;;;;;;;10.38;2.97;;;;;;;18.80;46.13;101704.53;4989221;28;20474;-66
2023/01/05 04:14:03;;;;;;;8.82;2.45;;;;;;;18.76;46.13;101697.78;4982978;28;20506;-68
2023/01/05 04:16:28;;;;;;;9.43;2.65;;;;;;;18.78;46.05;101695.88;4983248;28;20035;-68
2023/01/05 04:18:54;;;;;;;9.25;2.65;;;;;;;18.79;46.37;101697.59;5000445;28;20026;-68
2023/01/05 04:21:19;;;;;;;10.68;2.67;;;;;;;18.78;46.11;101702.00;4989034;28;20042;-68
2023/01/05 04:23:44;;;;;;;11.20;3.20;;;;;;;18.74;46.32;101695.25;4998950;28;20026;-67
2023/01/05 04:26:09;;;;;;;10.73;2.88;;;;;;;18.77;46.37;101716.16;4982549;28;20038;-70
2023/01/05 04:28:35;;;;;;;9.43;2.40;;;;;;;18.77;46.31;101708.25;4990876;28;20038;-68
2023/01/05 04:31:00;;;;;;;10.85;2.42;;;;;;;18.77;46.30;101702.97;4997254;28;20073;-68
2023/01/05 04:33:25;;;;;;;8.60;2.58;;;;;;;18.66;46.34;101690.50;4982703;28;20574;-67
2023/01/05 04:35:51;;;;;;;10.70;2.58;;;;;;;18.77;46.29;101702.09;4983103;28;20050;-67
2023/01/05 04:38:16;;;;;;;8.95;2.28;;;;;;;18.74;46.42;101697.03;4998003;28;20394;-67
2023/01/05 04:40:46;;;;;;;9.32;2.78;;;;;;;18.75;46.17;101707.50;4990372;28;20037;-67
2023/01/05 04:43:12;;;;;;;10.90;2.58;;;;;;;18.77;46.38;101697.69;4987922;28;20386;-67
2023/01/05 04:45:37;;;;;;;9.03;2.73;;;;;;;18.65;46.32;101688.81;4987443;28;20538;-69
2023/01/05 04:48:02;;;;;;;9.37;2.57;;;;;;;18.77;46.11;101705.59;5001636;28;21204;-67
2023/01/05 04:50:28;;;;;;;10.73;2.80;;;;;;;18.77;46.44;101710.03;4997044;28;20321;-68
2023/01/05 04:52:53;;;;;;;11.82;3.05;;;;;;;18.76;46.18;101708.34;5000004;28;20402;-71
2023/01/05 04:55:19;;;;;;;11.95;2.75;;;;;;;18.73;46.33;101701.47;5001721;28;20445;-68
2023/01/05 04:57:44;;;;;;;12.63;2.78;;;;;;;18.75;46.74;101704.00;4986453;28;20034;-71
2023/01/05 05:00:10;;;;;;;11.15;3.20;;;;;;;18.72;46.22;101693.66;4990563;28;20052;-67
2023/01/05 05:02:35;;;;;;;11.05;2.55;;;;;;;18.75;46.11;101711.94;4992838;28;20053;-68
2023/01/05 05:05:01;;;;;;;11.23;2.83;;;;;;;18.72;46.19;101705.06;4981851;28;20171;-69
2023/01/05 05:07:26;;;;;;;9.45;2.22;;;;;;;18.70;46.28;101703.50;4982088;28;20134;-68
2023/01/05 05:09:51;;;;;;;10.40;2.88;;;;;;;18.73;46.18;101712.03;4982152;28;20117;-66
2023/01/05 05:12:19;;;;;;;10.00;3.30;;;;;;;18.71;46.22;101718.38;4981854;28;20084;-69
2023/01/05 05:14:45;;;;;;;10.63;3.75;;;;;;;18.70;46.34;101720.19;4982281;28;20538;-68
2023/01/05 05:17:11;;;;;;;8.07;2.67;;;;;;;18.71;46.35;101719.25;4982453;28;20522;-66
2023/01/05 05:19:36;;;;;;;9.98;2.40;;;;;;;18.69;46.18;101723.75;4988015;28;20042;-67
2023/01/05 05:22:01;;;;;;;11.60;2.70;;;;;;;18.68;46.28;101720.28;4981693;28;20193;-65
2023/01/05 05:24:28;;;;;;;8.63;2.30;;;;;;;18.72;46.29;101738.56;4981674;28;20046;-69
2023/01/05 05:26:53;;;;;;;10.85;2.65;;;;;;;18.69;46.16;101736.97;4987423;28;20039;-67
2023/01/05 05:29:18;;;;;;;8.77;2.50;;;;;;;18.68;46.26;101737.94;4989716;28;20092;-66
2023/01/05 05:31:44;;;;;;;10.32;2.85;;;;;;;18.67;46.40;101739.75;4999678;28;20443;-68
2023/01/05 05:34:09;;;;;;;11.02;3.30;;;;;;;18.67;46.23;101729.19;4991380;28;20045;-68
2023/01/05 05:36:36;;;;;;;10.40;2.67;;;;;;;18.70;46.13;101735.19;4996254;28;20057;-69
2023/01/05 05:39:01;;;;;;;12.70;3.40;;;;;;;18.66;46.23;101739.84;5001374;28;20037;-68
2023/01/05 05:41:26;;;;;;;10.82;3.28;;;;;;;18.70;46.22;101748.38;5001288;28;20037;-69
2023/01/05 05:43:51;;;;;;;10.03;2.83;;;;;;;18.66;46.17;101745.13;4992684;28;20052;-67
2023/01/05 05:46:17;;;;;;;11.20;3.08;;;;;;;18.68;46.28;101745.84;4984547;28;20274;-67
2023/01/05 05:48:42;;;;;;;9.77;2.83;;;;;;;18.67;46.19;101750.31;4992157;28;20034;-70
2023/01/05 05:51:07;;;;;;;12.07;3.13;;;;;;;18.68;46.23;101753.78;5000179;28;20490;-68
2023/01/05 05:53:33;;;;;;;9.82;3.20;;;;;;;18.66;46.38;101748.59;4982014;28;20512;-67
2023/01/05 05:55:58;;;;;;;11.02;2.83;;;;;;;18.66;46.32;101761.81;4981437;28;20038;-68
2023/01/05 05:58:23;;;;;;;8.63;2.20;;;;;;;18.65;46.32;101768.03;4989989;28;20100;-68
2023/01/05 06:00:49;;;;;;;10.70;2.80;;;;;;;18.61;46.50;101752.50;4992090;28;20041;-66
2023/01/05 06:03:14;;;;;;;9.02;2.58;;;;;;;18.66;46.21;101771.53;4998827;28;20029;-67
2023/01/05 06:05:39;;;;;;;9.68;3.05;;;;;;;18.65;46.27;101775.94;4993772;28;20160;-69
2023/01/05 06:08:05;;;;;;;12.35;3.83;;;;;;;18.64;46.35;101770.78;4989565;28;20033;-69
2023/01/05 06:10:30;;;;;;;9.80;2.78;;;;;;;18.59;46.17;101771.09;4997783;28;20099;-69
2023/01/05 06:12:55;;;;;;;8.13;2.47;;;;;;;18.62;46.17;101777.97;5004666;28;20108;-68
2023/01/05 06:15:22;;;;;;;8.35;2.40;;;;;;;18.66;46.33;101777.66;5000576;28;20030;-68
2023/01/05 06:17:47;;;;;;;9.25;2.40;;;;;;;18.68;46.45;101777.53;4988539;28;20069;-69
2023/01/05 06:20:15;;;;;;;8.88;2.40;;;;;;;18.68;46.49;101786.28;4985075;28;20573;-68
2023/01/05 06:22:41;;;;;;;10.23;2.47;;;;;;;18.67;46.54;101789.91;4985021;28;20144;-64
2023/01/05 06:25:07;;;;;;;7.35;2.17;;;;;;;18.70;46.56;101786.19;4985051;28;20084;-66
2023/01/05 06:27:32;;;;;;;7.88;2.13;;;;;;;18.72;46.64;101794.00;4984722;28;20177;-66
2023/01/05 06:29:57;;;;;;;8.57;2.22;;;;;;;18.76;46.76;101806.06;4983419;28;20034;-66
2023/01/05 06:32:22;;;;;;;9.68;2.53;;;;;;;18.77;46.81;101799.81;4993524;28;20038;-69
2023/01/05 06:34:48;;;;;;;9.40;2.60;;;;;;;18.83;46.96;101799.38;4984701;28;20085;-67
2023/01/05 06:37:14;;;;;;;9.93;2.38;;;;;;;18.83;47.09;101800.25;4984661;28;20059;-66
2023/01/05 06:39:39;;;;;;;9.23;3.13;;;;;;;18.85;47.01;101798.38;4985198;28;20108;-67
2023/01/05 06:42:04;;;;;;;8.95;2.38;;;;;;;18.87;47.08;101807.97;4984320;28;20038;-68
2023/01/05 06:44:30;;;;;;;7.80;1.95;;;;;;;18.90;46.98;101805.97;4984578;28;20042;-67
2023/01/05 06:46:55;;;;;;;8.53;2.37;;;;;;;18.94;47.02;101812.72;5001072;28;20026;-69
2023/01/05 06:49:20;;;;;;;8.27;2.25;;;;;;;18.94;47.16;101831.22;4994821;28;20818;-66
2023/01/05 06:51:45;;;;;;;8.50;2.67;;;;;;;18.98;46.92;101824.78;4992712;28;20045;-67
2023/01/05 06:54:11;;;;;;;10.27;2.22;;;;;;;18.98;47.11;101831.88;4984533;28;20272;-67
2023/01/05 06:56:36;;;;;;;9.98;2.60;;;;;;;19.02;46.90;101822.75;4991774;28;20033;-67
2023/01/05 06:59:01;;;;;;;9.23;2.72;;;;;;;19.02;46.99;101843.91;5003453;28;20087;-67
2023/01/05 07:01:27;;;;;;;9.63;2.55;;;;;;;19.02;47.05;101839.44;4987139;28;20437;-69
2023/01/05 07:03:52;;;;;;;9.35;2.60;;;;;;;19.04;46.89;101839.34;4984458;28;20153;-69
2023/01/05 07:06:18;;;;;;;10.23;2.43;;;;;;;19.05;47.00;101845.50;4995749;28;20089;-67
2023/01/05 07:08:43;;;;;;;8.25;2.50;;;;;;;19.06;46.99;101844.53;4984377;28;20854;-67
2023/01/05 07:11:08;;;;;;;13.40;2.97;;;;;;;19.04;47.00;101836.69;4985421;28;20034;-68
2023/01/05 07:13:33;;;;;;;8.68;2.30;;;;;;;19.05;46.93;101846.31;5003358;28;20038;-67
2023/01/05 07:15:59;;;;;;;8.95;2.50;;;;;;;19.03;46.87;101842.97;4998620;28;20506;-67
2023/01/05 07:18:24;;;;;;;10.93;2.58;;;;;;;19.06;46.70;101850.69;4989827;28;20096;-69
2023/01/05 07:20:49;;;;;;;8.52;2.30;;;;;;;19.08;46.66;101845.28;4997546;28;20048;-69
2023/01/05 07:23:14;;;;;;;11.40;2.72;;;;;;;19.10;46.72;101843.38;4985527;28;20034;-68
2023/01/05 07:25:40;;;;;;;9.52;2.70;;;;;;;19.12;46.87;101838.81;4990589;28;20036;-72
2023/01/05 07:28:05;;;;;;;10.43;2.57;;;;;;;19.10;46.92;101841.56;5003065;28;20033;-69
2023/01/05 07:30:30;;;;;;;9.20;2.40;;;;;;;19.11;47.07;101845.91;4990358;28;20287;-70
2023/01/05 07:32:59;;;;;;;9.88;2.45;;;;;;;19.12;47.41;101863.47;4986155;28;20040;-67
2023/01/05 07:35:26;;;;;;;11.25;2.88;;;;;;;19.13;47.39;101859.84;4982112;28;20681;-69
2023/01/05 07:37:51;;;;;;;11.82;2.90;;;;;;;19.14;47.54;101863.34;4986906;28;20391;-67
2023/01/05 07:40:16;;;;;;;15.83;3.47;;;;;;;19.16;47.50;101861.44;4999162;28;20073;-68
2023/01/05 07:42:41;;;;;;;13.35;3.22;;;;;;;19.13;47.40;101864.28;4985246;28;20286;-68
2023/01/05 07:45:07;;;;;;;11.32;2.33;;;;;;;19.15;47.68;101876.47;4983372;28;20026;-68
2023/01/05 07:47:33;;;;;;;9.43;2.72;;;;;;;19.14;47.54;101871.28;4983773;28;20073;-71
2023/01/05 07:49:58;;;;;;;11.05;2.97;;;;;;;19.15;47.48;101878.25;4998594;28;20056;-68
2023/01/05 07:52:23;;;;;;;8.82;2.55;;;;;;;19.15;47.62;101872.94;4986411;28;20039;-69
2023/01/05 07:54:48;;;;;;;9.80;2.50;;;;;;;19.13;47.61;101877.50;4998144;28;20153;-68
2023/01/05 07:57:14;;;;;;;12.07;3.08;;;;;;;19.14;47.71;101877.41;4982111;28;20030;-68
2023/01/05 07:59:39;;;;;;;8.63;2.47;;;;;;;19.15;47.51;101881.75;4993253;28;20060;-70
2023/01/05 08:02:04;;;;;;;10.10;2.90;;;;;;;19.13;47.76;101878.34;5000033;28;20327;-66
2023/01/05 08:04:30;;;;;;;13.63;2.85;;;;;;;19.15;47.80;101888.81;4983205;28;20038;-68
2023/01/05 08:06:55;;;;;;;10.00;2.63;;;;;;;19.13;47.63;101888.91;4988032;28;20401;-66
2023/01/05 08:12:25;;;;;;;10.50;2.65;;;;;;;19.11;47.40;101888.19;4969374;28;20085;-70
2023/01/05 08:14:51;;;;;;;10.73;2.83;;;;;;;19.10;47.74;101891.75;4966948;28;20110;-74
2023/01/05 08:17:16;;;;;;;10.50;2.88;;;;;;;19.13;47.77;101894.19;4979477;28;20136;-68
2023/01/05 08:19:41;;;;;;;10.85;3.92;;;;;;;19.15;47.72;101902.88;5000966;28;20196;-70
2023/01/05 08:22:06;;;;;;;9.20;2.87;;;;;;;19.15;47.72;101899.38;4992422;28;20994;-69
2023/01/05 08:24:32;;;;;;;10.97;2.80;;;;;;;19.12;48.00;101900.47;4987707;28;20268;-68
2023/01/05 08:26:57;;;;;;;9.75;2.63;;;;;;;19.12;48.39;101900.47;5002571;28;20255;-67
2023/01/05 08:29:22;;;;;;;11.37;2.80;;;;;;;19.12;48.23;101903.09;4989165;28;20092;-70
2023/01/05 08:31:48;;;;;;;11.70;3.22;;;;;;;19.15;48.24;101908.16;4986963;28;20302;-67
2023/01/05 08:34:13;;;;;;;11.23;3.05;;;;;;;19.16;48.34;101923.06;5002139;28;20395;-68
2023/01/05 08:36:39;;;;;;;9.02;2.53;;;;;;;19.17;48.21;101922.13;4983129;28;20968;-70
2023/01/05 08:39:04;;;;;;;12.00;3.17;;;;;;;19.17;48.11;101923.91;4982504;28;20463;-67
2023/01/05 08:41:32;;;;;;;11.73;3.03;;;;;;;19.16;48.16;101922.22;4988878;28;20049;-69
2023/01/05 08:43:59;;;;;;;11.02;3.17;;;;;;;19.15;48.48;101921.38;4999049;28;20087;-70
2023/01/05 08:46:28;;;;;;;8.52;2.08;;;;;;;19.18;48.32;101937.03;4981005;28;20080;-66
2023/01/05 08:48:56;;;;;;;11.98;2.90;;;;;;;19.19;48.35;101943.16;4982342;28;20031;-68
2023/01/05 08:51:22;;;;;;;10.07;2.78;;;;;;;19.18;48.14;101944.97;4995960;28;20033;-67
2023/01/05 08:53:48;;;;;;;14.40;3.08;;;;;;;19.17;48.36;101937.97;5001994;28;20080;-68
2023/01/05 08:56:13;;;;;;;13.93;3.30;;;;;;;19.18;48.29;101950.25;4993579;28;20038;-68
2023/01/05 08:58:40;;;;;;;12.13;2.72;;;;;;;19.18;48.42;101950.25;4988257;28;20041;-67
2023/01/05 09:01:10;;;;;;;11.57;2.90;;;;;;;19.16;48.09;101948.66;4988000;28;20117;-68
2023/01/05 09:03:36;;;;;;;12.60;2.72;;;;;;;19.18;48.41;101941.44;4992349;28;20038;-68
2023/01/05 09:06:03;;;;;;;12.15;3.30;;;;;;;19.18;48.33;101946.72;4997718;28;20044;-69
2023/01/05 09:08:33;;;;;;;11.10;2.65;;;;;;;19.19;48.37;101962.47;4995798;28;20026;-70
2023/01/05 09:11:12;;;;;;;12.48;2.63;;;;;;;19.18;48.74;101952.03;4990092;28;20030;-68
2023/01/05 09:13:39;;;;;;;11.90;2.90;;;;;;;19.18;48.49;101959.94;5002001;28;20029;-69
2023/01/05 09:16:11;;;;;;;10.23;2.63;;;;;;;19.19;48.55;101959.84;4991716;28;20076;-70
2023/01/05 09:18:37;;;;;;;11.65;3.00;;;;;;;19.20;48.63;101960.69;4991682;28;20391;-66
2023/01/05 09:21:04;;;;;;;11.65;3.22;;;;;;;19.19;48.47;101964.28;4993521;28;20493;-69
2023/01/05 09:23:30;;;;;;;10.65;3.45;;;;;;;19.17;48.78;101960.91;5000572;28;20109;-68
2023/01/05 09:25:55;;;;;;;17.45;2.95;;;;;;;19.19;48.83;101972.22;4989686;28;20038;-67
2023/01/05 09:28:20;;;;;;;13.80;2.97;;;;;;;19.21;48.61;101975.59;4989098;28;20041;-68
2023/01/05 09:30:46;;;;;;;12.18;3.30;;;;;;;19.18;48.75;101965.22;4987903;28;20033;-68
2023/01/05 09:33:11;;;;;;;10.05;2.30;;;;;;;19.21;48.73;101973.78;4991127;28;20088;-68
2023/01/05 09:35:36;;;;;;;13.48;3.10;;;;;;;19.24;48.86;101988.59;4997860;28;20030;-68
2023/01/05 09:38:01;;;;;;;19.00;3.13;;;;;;;19.22;48.87;101993.16;4985703;28;20470;-68
2023/01/05 09:40:29;;;;;;;15.68;3.08;;;;;;;19.23;48.89;101994.00;4993606;28;20447;-69
2023/01/05 09:42:54;;;;;;;11.50;3.03;;;;;;;19.18;48.90;101979.31;4988835;28;20037;-68
2023/01/05 09:45:25;;;;;;;13.30;3.30;;;;;;;19.20;48.66;101989.75;4993223;28;20037;-72
2023/01/05 09:47:52;;;;;;;13.68;3.28;;;;;;;19.20;48.68;101990.63;4993141;28;20467;-68
2023/01/05 09:50:24;;;;;;;14.40;3.13;;;;;;;19.19;48.65;101993.34;4994592;28;20076;-67
2023/01/05 09:52:56;;;;;;;11.77;2.95;;;;;;;19.21;48.61;102005.50;5004317;28;20030;-68
2023/01/05 09:55:24;;;;;;;12.85;3.03;;;;;;;19.19;48.95;102004.75;4997892;28;20030;-71
2023/01/05 09:57:52;;;;;;;14.05;2.92;;;;;;;19.17;48.64;101996.09;4994766;28;20036;-68
2023/01/05 10:00:20;;;;;;;14.73;3.58;;;;;;;19.21;48.75;102004.66;4996585;28;20046;-70
2023/01/05 10:02:56;;;;;;;20.02;3.67;;;;;;;19.19;48.84;102006.56;4991171;28;20129;-72
2023/01/05 10:05:23;;;;;;;17.25;3.83;;;;;;;19.17;48.69;102003.19;4995720;28;20037;-70
2023/01/05 10:07:54;;;;;;;11.85;3.22;;;;;;;19.20;48.69;102005.59;4992577;28;20033;-70
2023/01/05 10:10:28;;;;;;;13.45;3.15;;;;;;;19.19;48.61;102019.78;4995445;28;20038;-69
2023/01/05 10:13:04;;;;;;;12.25;2.83;;;;;;;19.18;48.52;102013.66;4994859;28;20030;-69
2023/01/05 10:15:35;;;;;;;13.43;3.60;;;;;;;19.19;48.56;102015.34;4999003;28;20036;-68
2023/01/05 10:18:09;;;;;;;16.48;3.22;;;;;;;19.17;48.64;102011.97;4995256;28;20042;-71
2023/01/05 10:20:59;;;;;;;15.60;2.83;;;;;;;19.20;48.76;102021.47;4992638;28;20042;-67
2023/01/05 10:23:41;;;;;;;18.52;3.25;;;;;;;19.18;48.28;102018.09;5003559;28;20037;-71
2023/01/05 10:26:45;;;;;;;11.43;3.10;;;;;;;19.21;48.31;102033.72;5004253;28;20026;-69
2023/01/05 10:29:13;;;;;;;14.13;3.15;;;;;;;19.18;48.33;102028.66;4994916;28;20118;-71
2023/01/05 10:31:46;;;;;;;13.25;3.13;;;;;;;19.16;48.37;102031.41;5003008;28;20040;-70
2023/01/05 10:34:21;;;;;;;12.45;3.53;;;;;;;19.19;48.24;102041.75;4997426;28;20379;-71
2023/01/05 10:37:04;;;;;;;13.88;3.42;;;;;;;19.15;48.26;102036.78;4990744;28;20131;-72
2023/01/05 10:39:32;;;;;;;12.95;3.63;;;;;;;19.17;48.17;102025.16;4991038;28;20037;-69
2023/01/05 10:42:00;;;;;;;14.70;2.85;;;;;;;19.16;48.57;102031.41;4992744;28;20038;-68
2023/01/05 10:44:53;;;;;;;11.13;2.70;;;;;;;19.15;48.34;102027.09;4987265;28;20038;-68
2023/01/05 10:47:20;;;;;;;15.40;2.88;;;;;;;19.15;48.47;102027.09;4996908;28;20570;-68
2023/01/05 10:49:46;;;;;;;11.88;3.97;;;;;;;19.14;48.64;102017.44;4988394;28;20487;-68
2023/01/05 10:52:17;;;;;;;13.15;2.97;;;;;;;19.15;48.59;102032.38;4989918;28;20033;-71
2023/01/05 10:55:01;;;;;;;16.77;3.42;;;;;;;19.17;48.69;102029.63;5000112;28;20033;-69
2023/01/05 10:57:32;;;;;;;17.25;4.25;;;;;;;19.19;48.92;102036.47;4984551;28;20100;-72
2023/01/05 11:00:08;;;;;;;13.10;3.30;;;;;;;19.17;48.94;102033.09;5004008;28;20046;-71
2023/01/05 11:02:37;;;;;;;11.50;2.85;;;;;;;19.21;49.01;102034.56;5002359;28;20041;-71
2023/01/05 11:05:16;;;;;;;14.40;2.90;;;;;;;19.21;48.78;102045.13;5002292;28;20429;-73
2023/01/05 11:07:47;;;;;;;14.30;2.92;;;;;;;19.20;48.63;102039.97;4992315;28;20053;-71
2023/01/05 11:10:28;;;;;;;15.82;2.92;;;;;;;19.22;48.66;102040.72;5001347;28;20800;-74
2023/01/05 11:13:03;;;;;;;17.08;3.35;;;;;;;19.17;48.55;102034.91;4984424;28;20431;-70
2023/01/05 11:15:32;;;;;;;12.35;3.15;;;;;;;19.23;48.85;102041.56;4986194;28;20057;-70
2023/01/05 11:17:57;;;;;;;14.70;3.13;;;;;;;19.18;48.79;102037.44;4985016;28;20034;-71
2023/01/05 11:20:26;;;;;;;13.48;2.97;;;;;;;19.20;48.97;102040.81;4993092;28;20034;-73
2023/01/05 11:22:52;;;;;;;10.48;2.92;;;;;;;19.23;48.65;102037.09;4991032;28;20101;-69
2023/01/05 11:25:29;;;;;;;12.50;2.83;;;;;;;19.24;48.67;102046.75;5003233;28;20026;-70
2023/01/05 11:28:05;;;;;;;14.52;2.85;;;;;;;19.25;48.83;102044.94;5003005;28;20126;-72
2023/01/05 11:30:32;;;;;;;14.80;3.03;;;;;;;19.21;48.79;102034.56;4986378;28;20372;-73
2023/01/05 11:33:00;;;;;;;14.13;3.38;;;;;;;19.24;48.77;102030.88;4992477;28;20100;-71
2023/01/05 11:35:31;;;;;;;15.73;4.40;;;;;;;19.25;49.06;102026.44;4992358;28;20029;-70
2023/01/05 11:37:56;;;;;;;15.52;5.15;;;;;;;19.29;49.01;102030.56;4997298;28;20053;-72
2023/01/05 11:40:28;;;;;;;16.88;7.82;;;;;;;19.29;49.58;102025.28;4996965;28;20041;-71
2023/01/05 11:42:53;;;;;;;20.15;10.20;;;;;;;19.29;49.56;102023.50;4991170;28;20139;-72
2023/01/05 11:45:24;;;;;;;17.25;11.57;;;;;;;19.28;49.52;102023.59;4989343;28;20113;-73
2023/01/05 11:47:59;;;;;;;24.25;14.90;;;;;;;19.28;49.80;102018.31;4987461;28;20533;-71
2023/01/05 11:50:31;;;;;;;20.27;13.80;;;;;;;19.30;49.93;102016.44;4993474;28;20460;-74
2023/01/05 11:52:59;;;;;;;23.52;15.43;;;;;;;19.31;50.21;102021.59;4990413;28;20125;-73
2023/01/05 11:55:33;;;;;;;25.55;15.15;;;;;;;19.34;49.94;102020.53;4986420;28;20046;-72
2023/01/05 11:58:16;;;;;;;23.55;13.88;;;;;;;19.37;49.80;102018.53;4988104;28;20046;-69